Time;durP1;ratioP1;P1;durP2;ratioP2;P2;SDS_P1;SDS_P2;PMS_P1;PMS_P2;Temp;Humidity;BMP_temperature;BMP_pressure;BME280_temperature;BME280_humidity;BME280_pressure;Samples;Min_cycle;Max_cycle;Signal;HPM_P1;HPM_P2
2023/03/01 00:00:07;;;;;;;346.85;116.30;;;;;;;6.30;100.00;100337.28;298960;32;2897;-80
2023/03/01 00:00:18;;;;;;;347.92;119.32;;;;;;;6.30;100.00;100339.88;296176;33;1998;-81
2023/03/01 00:00:28;;;;;;;351.27;120.93;;;;;;;6.31;100.00;100339.00;298273;32;2194;-81
2023/03/01 00:00:39;;;;;;;350.25;120.20;;;;;;;6.32;100.00;100341.59;299254;32;2222;-81
2023/03/01 00:00:50;;;;;;;348.65;118.57;;;;;;;6.34;100.00;100338.97;295740;33;2203;-81
2023/03/01 00:01:03;;;;;;;347.83;117.93;;;;;;;6.36;100.00;100351.97;289307;33;2382;-81
2023/03/01 00:01:16;;;;;;;346.55;115.85;;;;;;;6.34;100.00;100332.03;291481;33;2575;-82
2023/03/01 00:01:28;;;;;;;345.98;115.72;;;;;;;6.36;100.00;100336.34;287455;34;3326;-82
2023/03/01 00:01:38;;;;;;;349.42;119.68;;;;;;;6.36;100.00;100344.16;282382;34;2668;-82
2023/03/01 00:01:49;;;;;;;351.70;120.57;;;;;;;6.34;100.00;100342.44;280549;34;3241;-82
2023/03/01 00:01:59;;;;;;;351.00;119.97;;;;;;;6.32;100.00;100349.41;278693;35;3223;-82
2023/03/01 00:02:10;;;;;;;350.98;120.30;;;;;;;6.29;100.00;100344.22;278518;35;2608;-82
2023/03/01 00:02:21;;;;;;;349.23;119.57;;;;;;;6.29;100.00;100344.22;276018;35;3922;-82
2023/03/01 00:02:31;;;;;;;349.23;120.57;;;;;;;6.28;100.00;100342.50;273148;36;2967;-81
2023/03/01 00:02:41;;;;;;;351.13;120.10;;;;;;;6.27;100.00;100345.97;272543;35;4431;-81
2023/03/01 00:02:52;;;;;;;351.23;119.60;;;;;;;6.29;100.00;100346.81;268280;36;4729;-81
2023/03/01 00:03:02;;;;;;;353.67;121.87;;;;;;;6.28;100.00;100342.50;266244;36;2340;-82
2023/03/01 00:04:35;;;;;;;332.24;103.45;;;;;;;6.29;100.00;100346.81;2504562;27;20266;-80
2023/03/01 00:04:46;;;;;;;340.75;107.75;;;;;;;6.30;100.00;100345.09;352195;28;1227;-82
2023/03/01 00:04:56;;;;;;;341.93;108.77;;;;;;;6.28;100.00;100342.50;348124;28;1207;-82
2023/03/01 00:05:07;;;;;;;342.48;111.28;;;;;;;6.27;100.00;100345.97;348476;28;1278;-81
2023/03/01 00:05:17;;;;;;;340.17;110.53;;;;;;;6.23;100.00;100344.28;349094;28;1429;-81
2023/03/01 00:05:28;;;;;;;341.53;111.97;;;;;;;6.20;100.00;100336.53;351212;28;1324;-81
2023/03/01 00:05:47;;;;;;;342.70;112.17;;;;;;;6.15;100.00;100345.25;347949;28;1226;-81
2023/03/01 00:05:57;;;;;;;341.20;110.07;;;;;;;6.13;100.00;100342.66;348070;28;1265;-82
2023/03/01 00:06:08;;;;;;;342.40;110.77;;;;;;;6.15;100.00;100345.25;347691;28;1230;-82
2023/03/01 00:06:19;;;;;;;344.17;113.28;;;;;;;6.14;100.00;100343.53;346490;28;805;-81
2023/03/01 00:06:30;;;;;;;349.05;114.75;;;;;;;6.16;100.00;100342.63;349037;28;1507;-81
2023/03/01 00:06:41;;;;;;;349.45;115.20;;;;;;;6.20;100.00;100341.72;347761;28;1412;-81
2023/03/01 00:06:52;;;;;;;349.27;113.50;;;;;;;6.25;100.00;100342.53;349213;28;1340;-81
2023/03/01 00:07:02;;;;;;;348.23;114.25;;;;;;;6.26;100.00;100344.25;347945;28;1302;-82
2023/03/01 00:07:13;;;;;;;350.30;116.43;;;;;;;6.26;100.00;100346.88;348492;28;990;-82
2023/03/01 00:07:23;;;;;;;348.25;116.20;;;;;;;6.25;100.00;100342.53;349336;28;1365;-81
2023/03/01 00:07:33;;;;;;;346.90;115.67;;;;;;;6.24;100.00;100345.16;348262;28;1212;-81
2023/03/01 00:07:44;;;;;;;347.27;115.50;;;;;;;6.24;100.00;100346.03;349301;28;1228;-82
2023/03/01 00:07:55;;;;;;;348.23;115.37;;;;;;;6.20;100.00;100339.13;350728;28;788;-82
2023/03/01 00:08:05;;;;;;;345.58;113.95;;;;;;;6.22;100.00;100345.16;349504;28;1247;-82
2023/03/01 00:08:15;;;;;;;345.15;111.82;;;;;;;6.19;100.00;100337.41;349017;28;1318;-81
2023/03/01 00:08:26;;;;;;;347.40;113.23;;;;;;;6.22;100.00;100339.97;348156;28;1180;-81
2023/03/01 00:08:36;;;;;;;349.38;113.43;;;;;;;6.24;100.00;100340.81;347957;28;1371;-81
2023/03/01 00:08:47;;;;;;;350.30;112.87;;;;;;;6.30;100.00;100342.50;346372;28;962;-82
2023/03/01 00:08:59;;;;;;;350.67;112.25;;;;;;;6.32;100.00;100344.19;346390;28;1231;-81
2023/03/01 00:09:09;;;;;;;350.08;112.07;;;;;;;6.34;100.00;100345.03;347932;28;1433;-81
2023/03/01 00:09:20;;;;;;;347.50;112.07;;;;;;;6.37;100.00;100346.75;345494;28;1223;-81
2023/03/01 00:09:30;;;;;;;348.10;113.63;;;;;;;6.36;100.00;100341.56;345336;28;1339;-82
2023/03/01 00:09:41;;;;;;;345.97;112.50;;;;;;;6.31;100.00;100345.06;347161;28;1217;-80
2023/03/01 00:09:51;;;;;;;342.95;110.90;;;;;;;6.33;100.00;100339.84;345805;28;1373;-81
2023/03/01 00:10:02;;;;;;;344.80;111.80;;;;;;;6.28;100.00;100341.66;342834;28;1388;-81
2023/03/01 00:10:12;;;;;;;344.02;112.47;;;;;;;6.22;100.00;100342.56;345960;28;1355;-80
2023/03/01 00:10:23;;;;;;;344.45;113.57;;;;;;;6.18;100.00;100348.69;345507;28;1235;-81
2023/03/01 00:10:33;;;;;;;340.20;110.63;;;;;;;6.17;100.00;100341.75;344265;28;1200;-81
2023/03/01 00:10:43;;;;;;;341.15;112.75;;;;;;;6.20;100.00;100346.94;345104;28;1197;-81
2023/03/01 00:11:08;;;;;;;343.20;113.57;;;;;;;6.19;100.00;100337.41;342355;28;1331;-81
2023/03/01 00:11:23;;;;;;;341.55;113.32;;;;;;;6.20;100.00;100339.13;341914;28;1470;-82
2023/03/01 00:11:34;;;;;;;340.52;112.25;;;;;;;6.23;100.00;100341.69;345822;28;1371;-81
2023/03/01 00:11:44;;;;;;;338.80;108.65;;;;;;;6.27;100.00;100342.53;343305;28;1375;-81
2023/03/01 00:11:55;;;;;;;342.27;108.93;;;;;;;6.29;100.00;100346.81;343262;28;1349;-81
2023/03/01 00:12:05;;;;;;;343.48;109.25;;;;;;;6.28;100.00;100344.25;343662;28;1334;-81
2023/03/01 00:12:16;;;;;;;343.77;109.87;;;;;;;6.24;100.00;100343.41;343955;28;1312;-81
2023/03/01 00:12:27;;;;;;;342.30;107.63;;;;;;;6.21;100.00;100346.06;343547;28;1478;-81
2023/03/01 00:12:37;;;;;;;342.08;108.35;;;;;;;6.22;100.00;100339.97;339771;29;1415;-81
2023/03/01 00:12:48;;;;;;;342.13;109.20;;;;;;;6.24;100.00;100350.34;343993;28;1563;-82
2023/03/01 00:13:00;;;;;;;343.00;109.53;;;;;;;6.26;100.00;100344.25;341717;28;1338;-81
2023/03/01 00:13:10;;;;;;;345.38;111.25;;;;;;;6.27;100.00;100340.78;340034;28;1404;-81
2023/03/01 00:13:20;;;;;;;345.55;113.05;;;;;;;6.28;100.00;100342.50;336261;29;1480;-81
2023/03/01 00:13:31;;;;;;;344.27;113.50;;;;;;;6.28;100.00;100344.25;338596;29;1911;-81
2023/03/01 00:13:41;;;;;;;342.13;111.28;;;;;;;6.26;100.00;100343.41;336554;29;1369;-81
2023/03/01 00:13:53;;;;;;;342.67;109.53;;;;;;;6.23;100.00;100344.28;337144;29;1287;-82
2023/03/01 00:14:04;;;;;;;342.58;108.95;;;;;;;6.21;100.00;100340.84;335782;29;938;-81
2023/03/01 00:14:17;;;;;;;342.55;107.30;;;;;;;6.20;100.00;100344.31;339598;29;1765;-81
2023/03/01 00:14:27;;;;;;;343.27;108.78;;;;;;;6.19;100.00;100342.59;339911;28;1515;-81
2023/03/01 00:14:37;;;;;;;344.80;111.47;;;;;;;6.17;100.00;100339.16;338427;29;1314;-81
2023/03/01 00:14:48;;;;;;;344.48;110.65;;;;;;;6.18;100.00;100348.69;337893;29;2069;-81
2023/03/01 00:14:58;;;;;;;344.73;110.30;;;;;;;6.18;100.00;100343.50;337083;29;2132;-82
2023/03/01 00:15:09;;;;;;;342.08;109.45;;;;;;;6.17;100.00;100341.75;332362;29;919;-81
2023/03/01 00:15:19;;;;;;;343.70;113.43;;;;;;;6.15;100.00;100335.72;332396;29;2125;-81
2023/03/01 00:15:30;;;;;;;345.80;113.50;;;;;;;6.19;100.00;100346.94;329673;29;1768;-80
2023/03/01 00:15:41;;;;;;;344.87;110.60;;;;;;;6.14;100.00;100341.78;328805;29;2097;-80
2023/03/01 00:15:51;;;;;;;341.88;108.63;;;;;;;6.18;100.00;100340.03;332097;29;1356;-81
2023/03/01 00:16:04;;;;;;;340.13;109.75;;;;;;;6.15;100.00;100340.06;332294;29;1571;-81
2023/03/01 00:16:17;;;;;;;342.17;112.95;;;;;;;6.10;100.00;100347.91;331570;29;1288;-81
2023/03/01 00:16:30;;;;;;;342.27;111.72;;;;;;;6.08;100.00;100344.47;330383;29;1296;-82
2023/03/01 00:16:41;;;;;;;340.80;107.28;;;;;;;6.09;100.00;100342.72;330203;29;1688;-81
2023/03/01 00:16:52;;;;;;;343.25;108.50;;;;;;;6.07;100.00;100347.94;329738;30;848;-82
2023/03/01 00:17:02;;;;;;;350.42;113.63;;;;;;;6.10;100.00;100345.31;329531;29;2144;-81
2023/03/01 00:17:13;;;;;;;352.97;116.20;;;;;;;6.10;100.00;100342.72;327534;30;2044;-81
2023/03/01 00:17:23;;;;;;;352.08;115.78;;;;;;;6.14;100.00;100346.13;325818;30;1239;-81
2023/03/01 00:17:34;;;;;;;347.90;114.47;;;;;;;6.14;100.00;100348.72;323018;30;2077;-81
2023/03/01 00:17:44;;;;;;;343.88;113.68;;;;;;;6.11;100.00;100343.56;321452;30;2145;-81
2023/03/01 00:17:54;;;;;;;342.60;113.03;;;;;;;6.11;100.00;100339.22;319684;30;2375;-81
2023/03/01 00:18:05;;;;;;;341.58;112.00;;;;;;;6.14;100.00;100343.53;321712;30;1443;-81
2023/03/01 00:18:15;;;;;;;343.07;111.53;;;;;;;6.08;100.00;100346.19;318042;31;1685;-81
2023/03/01 00:18:26;;;;;;;343.80;111.75;;;;;;;6.08;100.00;100344.47;317666;30;1322;-81
2023/03/01 00:18:36;;;;;;;346.47;113.77;;;;;;;6.05;100.00;100343.66;315461;31;918;-81
2023/03/01 00:18:46;;;;;;;348.17;112.68;;;;;;;6.00;100.00;100341.13;312229;31;2266;-80
2023/03/01 00:18:57;;;;;;;352.40;115.43;;;;;;;6.02;100.00;100343.69;309761;31;2440;-82
2023/03/01 00:19:11;;;;;;;353.30;113.65;;;;;;;6.00;100.00;100351.50;306906;32;1210;-81
2023/03/01 00:19:21;;;;;;;349.30;113.35;;;;;;;6.01;100.00;100348.03;305574;32;1320;-80
2023/03/01 00:19:32;;;;;;;351.57;118.90;;;;;;;6.02;100.00;100338.50;311927;31;2506;-81
2023/03/01 00:19:42;;;;;;;355.42;121.10;;;;;;;6.02;100.00;100339.34;312124;31;2546;-81
2023/03/01 00:19:53;;;;;;;359.33;122.33;;;;;;;6.02;100.00;100349.75;313191;31;1208;-82
2023/03/01 00:20:07;;;;;;;355.20;117.13;;;;;;;6.03;100.00;100341.09;312465;31;2704;-82
2023/03/01 00:20:18;;;;;;;351.38;114.93;;;;;;;6.06;100.00;100342.78;311987;31;2564;-81
2023/03/01 00:20:28;;;;;;;354.03;117.80;;;;;;;6.06;100.00;100346.25;311208;31;2059;-82
2023/03/01 00:20:39;;;;;;;357.37;121.93;;;;;;;6.05;100.00;100338.47;311476;31;1315;-80
2023/03/01 00:20:53;;;;;;;356.48;119.35;;;;;;;6.10;100.00;100342.72;310603;31;1484;-81
2023/03/01 00:21:04;;;;;;;346.75;113.43;;;;;;;6.14;100.00;100343.53;311808;31;2408;-80
2023/03/01 00:21:16;;;;;;;343.70;114.20;;;;;;;6.18;100.00;100350.41;307053;31;3674;-80
2023/03/01 00:21:26;;;;;;;345.60;117.85;;;;;;;6.17;100.00;100343.50;305682;31;3250;-79
2023/03/01 00:21:37;;;;;;;348.85;121.25;;;;;;;6.12;100.00;100343.56;304910;32;1421;-80
2023/03/01 00:21:47;;;;;;;349.10;120.88;;;;;;;6.11;100.00;100341.84;308031;31;3052;-81
2023/03/01 00:21:58;;;;;;;349.03;119.20;;;;;;;6.12;100.00;100340.94;306579;32;3151;-80
2023/03/01 00:22:08;;;;;;;346.55;117.55;;;;;;;6.12;100.00;100343.56;302500;32;1256;-82
2023/03/01 00:22:23;;;;;;;347.40;118.20;;;;;;;6.14;100.00;100346.13;301896;32;3720;-82
2023/03/01 00:22:36;;;;;;;347.63;114.95;;;;;;;6.12;100.00;100337.50;300290;32;3896;-83
2023/03/01 00:22:52;;;;;;;353.56;118.80;;;;;;;6.08;100.00;100339.25;297707;32;3062;-81
2023/03/01 00:23:02;;;;;;;359.70;125.47;;;;;;;6.09;100.00;100337.53;293947;33;2604;-82
2023/03/01 00:23:19;;;;;;;358.00;124.23;;;;;;;6.04;100.00;100340.22;292767;33;4734;-82
2023/03/01 00:23:30;;;;;;;356.27;121.88;;;;;;;6.07;100.00;100341.88;287869;33;5615;-82
2023/03/01 00:23:40;;;;;;;355.90;121.27;;;;;;;6.06;100.00;100335.84;284307;34;5091;-82
2023/03/01 00:23:51;;;;;;;354.58;120.72;;;;;;;6.11;100.00;100336.63;285462;34;1238;-82
2023/03/01 00:24:03;;;;;;;350.90;118.83;;;;;;;6.12;100.00;100335.75;285659;34;4413;-82
2023/03/01 00:24:13;;;;;;;348.30;118.45;;;;;;;6.14;100.00;100344.41;284922;34;4632;-81
2023/03/01 00:24:24;;;;;;;349.40;121.50;;;;;;;6.16;100.00;100342.63;283923;34;1230;-81
2023/03/01 00:24:34;;;;;;;348.15;119.75;;;;;;;6.19;100.00;100336.56;280755;35;4939;-81
2023/03/01 00:24:45;;;;;;;348.30;120.27;;;;;;;6.17;100.00;100339.16;279121;34;5670;-81
2023/03/01 00:24:56;;;;;;;347.15;119.38;;;;;;;6.21;100.00;100342.59;276101;35;4475;-81
2023/03/01 00:25:07;;;;;;;346.90;121.32;;;;;;;6.24;100.00;100343.41;277614;35;1359;-81
2023/03/01 00:25:17;;;;;;;347.95;122.07;;;;;;;6.25;100.00;100337.34;270913;35;4851;-81
2023/03/01 00:26:57;;;;;;;330.82;104.61;;;;;;;6.31;100.00;100342.47;2501535;27;20954;-80
2023/03/01 00:27:08;;;;;;;338.62;109.40;;;;;;;6.31;100.00;100339.00;353378;28;1356;-82
2023/03/01 00:27:18;;;;;;;342.23;111.87;;;;;;;6.25;100.00;100332.16;352013;28;1439;-80
2023/03/01 00:27:29;;;;;;;343.88;111.70;;;;;;;6.25;100.00;100334.75;349238;28;1019;-80
2023/03/01 00:27:39;;;;;;;347.63;114.50;;;;;;;6.20;100.00;100341.72;349175;28;1259;-80
2023/03/01 00:27:50;;;;;;;348.25;114.13;;;;;;;6.21;100.00;100330.47;350343;28;1254;-79
2023/03/01 00:28:00;;;;;;;348.03;113.03;;;;;;;6.23;100.00;100335.63;350634;28;1203;-79
2023/03/01 00:28:10;;;;;;;347.13;113.03;;;;;;;6.26;100.00;100339.06;352047;28;1314;-80
2023/03/01 00:28:21;;;;;;;347.50;113.17;;;;;;;6.26;100.00;100338.19;350661;28;1323;-80
2023/03/01 00:28:32;;;;;;;345.50;112.85;;;;;;;6.23;100.00;100339.09;348343;28;1316;-81
2023/03/01 00:28:42;;;;;;;341.70;110.43;;;;;;;6.20;100.00;100333.94;348438;28;1318;-81
2023/03/01 00:28:53;;;;;;;341.87;110.87;;;;;;;6.23;100.00;100339.09;349113;28;1127;-80
2023/03/01 00:29:05;;;;;;;343.27;111.47;;;;;;;6.27;100.00;100339.91;350104;28;832;-80
2023/03/01 00:29:15;;;;;;;344.83;111.80;;;;;;;6.25;100.00;100333.88;350476;28;1311;-82
2023/03/01 00:29:25;;;;;;;345.03;111.90;;;;;;;6.22;100.00;100337.38;349022;28;1350;-81
2023/03/01 00:29:36;;;;;;;344.98;112.20;;;;;;;6.21;100.00;100329.59;349353;28;1239;-80
2023/03/01 00:29:46;;;;;;;347.33;114.13;;;;;;;6.24;100.00;100335.63;349071;28;1298;-80
2023/03/01 00:29:57;;;;;;;348.63;117.93;;;;;;;6.25;100.00;100339.94;350359;28;1242;-81
2023/03/01 00:30:08;;;;;;;350.37;119.33;;;;;;;6.25;100.00;100344.28;349147;28;867;-82
2023/03/01 00:30:18;;;;;;;347.08;116.18;;;;;;;6.16;100.00;100337.44;346507;28;1382;-81
2023/03/01 00:30:29;;;;;;;344.16;111.80;;;;;;;6.18;100.00;100340.88;343765;28;909;-81
2023/03/01 00:30:40;;;;;;;342.27;110.90;;;;;;;6.19;100.00;100340.00;345078;28;1159;-80
2023/03/01 00:30:50;;;;;;;342.15;111.25;;;;;;;6.18;100.00;100340.88;343570;28;1321;-80
2023/03/01 00:31:11;;;;;;;343.80;113.00;;;;;;;6.22;100.00;100347.78;345157;28;1201;-80
2023/03/01 00:31:22;;;;;;;342.38;114.03;;;;;;;6.25;100.00;100345.13;346165;28;1000;-81
2023/03/01 00:31:33;;;;;;;343.20;112.63;;;;;;;6.23;100.00;100339.09;344950;28;1268;-80
2023/03/01 00:31:43;;;;;;;343.70;111.47;;;;;;;6.25;100.00;100339.09;343827;28;1420;-81
2023/03/01 00:31:53;;;;;;;346.33;113.73;;;;;;;6.29;100.00;100346.81;344538;28;1336;-80
2023/03/01 00:32:04;;;;;;;345.00;113.88;;;;;;;6.25;100.00;100339.94;345163;28;1229;-81
2023/03/01 00:32:14;;;;;;;346.27;112.40;;;;;;;6.28;100.00;100337.31;344254;28;1292;-81
2023/03/01 00:32:25;;;;;;;347.00;112.80;;;;;;;6.26;100.00;100339.06;345149;28;1715;-81
2023/03/01 00:32:36;;;;;;;348.48;114.22;;;;;;;6.27;100.00;100335.59;345272;28;1016;-81
2023/03/01 00:32:46;;;;;;;347.33;114.93;;;;;;;6.26;100.00;100336.47;344169;28;1193;-80
2023/03/01 00:32:56;;;;;;;348.53;114.67;;;;;;;6.32;100.00;100343.34;346430;28;1420;-80
2023/03/01 00:33:07;;;;;;;347.45;115.05;;;;;;;6.32;100.00;100339.00;340871;28;1326;-81
2023/03/01 00:33:17;;;;;;;348.20;115.50;;;;;;;6.36;100.00;100338.97;340905;28;1290;-81
2023/03/01 00:33:28;;;;;;;344.77;113.28;;;;;;;6.35;100.00;100335.50;340919;29;1017;-81
2023/03/01 00:33:39;;;;;;;344.63;113.83;;;;;;;6.37;100.00;100346.75;341192;29;1037;-80
2023/03/01 00:33:56;;;;;;;345.20;113.97;;;;;;;6.37;100.00;100340.69;342560;28;1368;-80
2023/03/01 00:34:08;;;;;;;347.98;116.65;;;;;;;6.39;100.00;100347.59;336937;29;1600;-80
2023/03/01 00:34:19;;;;;;;347.02;115.03;;;;;;;6.40;100.00;100341.50;337639;29;1372;-81
2023/03/01 00:34:29;;;;;;;346.25;114.65;;;;;;;6.41;100.00;100337.16;339157;28;1307;-80
2023/03/01 00:34:41;;;;;;;349.43;114.13;;;;;;;6.44;100.00;100347.53;345291;28;1328;-80
2023/03/01 00:34:54;;;;;;;351.50;114.55;;;;;;;6.37;100.00;100340.69;345350;28;1291;-80
2023/03/01 00:35:05;;;;;;;348.00;111.18;;;;;;;6.34;100.00;100342.44;340403;28;1447;-80
2023/03/01 00:35:15;;;;;;;347.35;113.15;;;;;;;6.37;100.00;100346.75;340465;28;1895;-80
2023/03/01 00:35:26;;;;;;;344.73;111.88;;;;;;;6.38;100.00;100345.00;343599;28;1249;-81
2023/03/01 00:35:36;;;;;;;342.30;111.43;;;;;;;6.38;100.00;100342.41;340997;28;1317;-81
2023/03/01 00:35:47;;;;;;;341.98;112.88;;;;;;;6.36;100.00;100338.97;338074;29;1974;-81
2023/03/01 00:36:00;;;;;;;340.80;111.20;;;;;;;6.33;100.00;100340.72;335792;29;1262;-81
2023/03/01 00:36:11;;;;;;;339.23;108.63;;;;;;;6.30;100.00;100343.34;338417;29;977;-80
2023/03/01 00:36:22;;;;;;;342.67;108.35;;;;;;;6.29;100.00;100343.38;337750;29;1386;-80
2023/03/01 00:36:35;;;;;;;343.80;108.80;;;;;;;6.32;100.00;100343.34;340146;29;1241;-80
2023/03/01 00:36:45;;;;;;;340.05;106.82;;;;;;;6.33;100.00;100345.91;338128;29;1452;-81
2023/03/01 00:37:05;;;;;;;341.30;111.17;;;;;;;6.36;100.00;100345.03;333477;29;1438;-81
2023/03/01 00:37:15;;;;;;;344.23;114.20;;;;;;;6.33;100.00;100338.13;326489;30;2037;-80
2023/03/01 00:37:26;;;;;;;341.17;111.17;;;;;;;6.35;100.00;100338.09;325357;30;1226;-79
2023/03/01 00:37:36;;;;;;;342.08;111.80;;;;;;;6.38;100.00;100337.19;324968;30;1691;-79
2023/03/01 00:37:47;;;;;;;343.13;112.73;;;;;;;6.41;100.00;100343.22;324562;30;1638;-81
2023/03/01 00:37:58;;;;;;;343.67;113.22;;;;;;;6.41;100.00;100340.63;323451;30;1488;-83
2023/03/01 00:38:08;;;;;;;343.50;112.03;;;;;;;6.45;100.00;100344.06;322452;30;1355;-82
2023/03/01 00:38:18;;;;;;;342.83;108.55;;;;;;;6.46;100.00;100336.22;326852;30;1035;-80
2023/03/01 00:38:29;;;;;;;343.00;106.17;;;;;;;6.49;100.00;100340.53;324786;30;1329;-80
2023/03/01 00:38:43;;;;;;;343.50;105.47;;;;;;;6.52;100.00;100340.47;321044;30;1159;-80
2023/03/01 00:38:55;;;;;;;341.38;106.53;;;;;;;6.49;100.00;100332.72;318587;31;1429;-81
2023/03/01 00:39:09;;;;;;;341.80;106.65;;;;;;;6.50;100.00;100334.47;321862;30;2079;-80
2023/03/01 00:39:21;;;;;;;341.00;106.07;;;;;;;6.45;100.00;100339.72;320875;30;1679;-81
2023/03/01 00:39:32;;;;;;;340.45;107.43;;;;;;;6.40;100.00;100335.44;318723;30;2321;-81
2023/03/01 00:39:44;;;;;;;340.30;108.15;;;;;;;6.39;100.00;100333.72;318612;30;2095;-80
2023/03/01 00:39:54;;;;;;;345.30;112.85;;;;;;;6.41;100.00;100337.16;319016;31;1474;-81
2023/03/01 00:40:06;;;;;;;348.02;114.63;;;;;;;6.40;100.00;100332.84;319256;30;1721;-81
2023/03/01 00:40:16;;;;;;;345.85;112.72;;;;;;;6.34;100.00;100336.38;317409;31;1515;-81
2023/03/01 00:40:27;;;;;;;344.83;112.83;;;;;;;6.28;100.00;100332.09;319034;31;1403;-81
2023/03/01 00:40:37;;;;;;;341.60;109.43;;;;;;;6.26;100.00;100333.88;315382;31;1240;-80
2023/03/01 00:40:48;;;;;;;342.05;109.78;;;;;;;6.25;100.00;100326.94;313926;31;1708;-81
2023/03/01 00:41:04;;;;;;;341.03;107.97;;;;;;;6.21;100.00;100330.47;312909;31;2154;-81
2023/03/01 00:41:15;;;;;;;340.58;107.43;;;;;;;6.24;100.00;100335.63;310301;31;2180;-79
2023/03/01 00:41:26;;;;;;;340.05;107.80;;;;;;;6.25;100.00;100339.94;310046;31;1046;-80
2023/03/01 00:41:36;;;;;;;342.20;108.97;;;;;;;6.22;100.00;100326.97;308163;31;2659;-79
2023/03/01 00:41:47;;;;;;;343.17;109.50;;;;;;;6.25;100.00;100331.28;305350;32;2811;-79
2023/03/01 00:42:04;;;;;;;342.70;109.97;;;;;;;6.25;100.00;100337.34;305227;32;2609;-83
2023/03/01 00:42:14;;;;;;;338.98;108.78;;;;;;;6.27;100.00;100333.00;301802;32;2601;-81
2023/03/01 00:42:24;;;;;;;340.83;109.50;;;;;;;6.27;100.00;100335.59;304574;32;806;-82
2023/03/01 00:42:35;;;;;;;342.55;112.05;;;;;;;6.29;100.00;100327.78;308204;31;1601;-81
2023/03/01 00:42:45;;;;;;;345.67;115.83;;;;;;;6.27;100.00;100332.13;307654;32;1708;-80
2023/03/01 00:43:01;;;;;;;345.47;116.03;;;;;;;6.30;100.00;100327.75;302749;32;1322;-84
2023/03/01 00:43:11;;;;;;;342.40;109.47;;;;;;;6.31;100.00;100329.47;302474;32;1311;-82
2023/03/01 00:43:23;;;;;;;343.10;110.87;;;;;;;6.34;100.00;100325.97;300340;32;2957;-82
2023/03/01 00:43:36;;;;;;;345.92;116.57;;;;;;;6.37;100.00;100322.47;295391;32;3254;-83
2023/03/01 00:43:48;;;;;;;346.00;117.85;;;;;;;6.37;100.00;100327.69;293412;33;2925;-81
2023/03/01 00:43:59;;;;;;;349.23;118.57;;;;;;;6.34;100.00;100326.84;291408;33;3026;-82
2023/03/01 00:44:09;;;;;;;351.38;119.70;;;;;;;6.34;100.00;100325.97;293194;33;1321;-81
2023/03/01 00:44:20;;;;;;;345.20;111.53;;;;;;;6.31;100.00;100329.47;296682;33;3544;-80
2023/03/01 00:44:30;;;;;;;343.20;110.43;;;;;;;6.29;100.00;100333.84;297387;33;3645;-81
2023/03/01 00:44:41;;;;;;;343.00;109.80;;;;;;;6.22;100.00;100331.31;294100;33;1253;-82
2023/03/01 00:44:53;;;;;;;341.10;108.65;;;;;;;6.17;100.00;100325.31;293803;33;2300;-82
2023/03/01 00:45:03;;;;;;;338.73;107.20;;;;;;;6.13;100.00;100321.88;295843;33;1514;-82
2023/03/01 00:45:14;;;;;;;337.98;106.28;;;;;;;6.10;100.00;100321.91;291690;33;4044;-81
2023/03/01 00:45:25;;;;;;;343.23;110.07;;;;;;;6.11;100.00;100327.97;288095;34;1571;-82
2023/03/01 00:45:36;;;;;;;346.00;114.93;;;;;;;6.08;100.00;100328.00;285676;33;4367;-82
2023/03/01 00:45:46;;;;;;;348.70;118.90;;;;;;;6.05;100.00;100322.88;282778;34;4163;-81
2023/03/01 00:46:02;;;;;;;349.90;122.20;;;;;;;6.10;100.00;100321.06;283127;35;1527;-81
2023/03/01 00:46:15;;;;;;;347.27;118.78;;;;;;;6.13;100.00;100319.28;277680;35;5510;-81
2023/03/01 00:46:26;;;;;;;342.92;111.88;;;;;;;6.14;100.00;100322.75;276018;35;1391;-81
2023/03/01 00:46:37;;;;;;;342.42;109.65;;;;;;;6.14;100.00;100318.41;276456;35;4952;-81
2023/03/01 00:46:47;;;;;;;344.05;112.00;;;;;;;6.17;100.00;100325.31;277703;35;4702;-82
2023/03/01 00:46:58;;;;;;;347.33;115.33;;;;;;;6.18;100.00;100325.28;274167;35;3728;-81
2023/03/01 00:47:10;;;;;;;346.98;114.55;;;;;;;6.13;100.00;100315.81;269933;36;1364;-81
2023/03/01 00:49:04;;;;;;;329.02;100.43;;;;;;;6.11;100.00;100312.38;2465871;27;20281;-80
2023/03/01 00:49:14;;;;;;;338.27;105.57;;;;;;;6.12;100.00;100320.16;349338;28;1327;-81
2023/03/01 00:49:27;;;;;;;342.90;109.77;;;;;;;6.10;100.00;100316.72;346178;28;1426;-81
2023/03/01 00:49:37;;;;;;;345.83;111.88;;;;;;;6.13;100.00;100316.69;345476;28;1414;-81
2023/03/01 00:49:48;;;;;;;346.00;108.88;;;;;;;6.12;100.00;100314.97;344233;28;1212;-79
2023/03/01 00:49:58;;;;;;;346.87;109.40;;;;;;;6.14;100.00;100309.75;345121;28;1320;-80
2023/03/01 00:50:09;;;;;;;350.00;109.87;;;;;;;6.19;100.00;100314.03;343018;28;1303;-80
2023/03/01 00:50:20;;;;;;;344.15;109.38;;;;;;;6.23;100.00;100310.50;342645;28;1459;-80
2023/03/01 00:50:30;;;;;;;341.93;110.13;;;;;;;6.28;100.00;100311.31;343746;28;1217;-79
2023/03/01 00:50:41;;;;;;;339.13;110.63;;;;;;;6.31;100.00;100318.22;343270;28;1383;-80
2023/03/01 00:50:52;;;;;;;341.77;112.83;;;;;;;6.31;100.00;100313.88;342589;28;1015;-81
2023/03/01 00:51:17;;;;;;;343.33;113.53;;;;;;;6.28;100.00;100311.31;341403;29;841;-81
2023/03/01 00:51:37;;;;;;;338.52;110.57;;;;;;;6.24;100.00;100309.63;344455;28;952;-82
2023/03/01 00:51:50;;;;;;;336.65;105.30;;;;;;;6.23;100.00;100307.06;344705;28;1445;-84
2023/03/01 00:52:07;;;;;;;340.52;104.47;;;;;;;6.20;100.00;100313.16;343547;28;1451;-82
2023/03/01 00:52:17;;;;;;;345.83;111.45;;;;;;;6.15;100.00;100311.47;342748;28;1289;-81
2023/03/01 00:52:28;;;;;;;344.20;112.93;;;;;;;6.14;100.00;100307.16;344210;28;1388;-81
2023/03/01 00:52:38;;;;;;;345.05;113.22;;;;;;;6.17;100.00;100312.31;342300;28;1355;-81
2023/03/01 00:52:53;;;;;;;342.97;111.50;;;;;;;6.16;100.00;100310.59;342302;28;1332;-81
2023/03/01 00:53:04;;;;;;;338.05;109.97;;;;;;;6.17;100.00;100313.19;339691;29;1419;-81
2023/03/01 00:53:16;;;;;;;338.20;108.95;;;;;;;6.21;100.00;100309.66;339489;29;1647;-81
2023/03/01 00:53:26;;;;;;;340.48;109.35;;;;;;;6.21;100.00;100311.41;344733;28;1412;-81
2023/03/01 00:53:37;;;;;;;340.92;108.03;;;;;;;6.20;100.00;100313.16;342474;28;814;-80
2023/03/01 00:53:50;;;;;;;344.65;109.97;;;;;;;6.15;100.00;100301.94;342199;28;1316;-80
2023/03/01 00:54:01;;;;;;;345.60;112.15;;;;;;;6.11;100.00;100304.59;341079;29;1348;-80
2023/03/01 00:54:11;;;;;;;343.50;110.18;;;;;;;6.10;100.00;100311.53;342465;28;1289;-80
2023/03/01 00:54:22;;;;;;;345.47;112.67;;;;;;;6.11;100.00;100305.44;341173;28;1221;-80
2023/03/01 00:54:35;;;;;;;344.25;110.47;;;;;;;6.12;100.00;100303.72;341832;28;1215;-79
2023/03/01 00:54:46;;;;;;;343.80;110.78;;;;;;;6.09;100.00;100309.81;345017;28;1451;-81
2023/03/01 00:54:57;;;;;;;344.75;111.22;;;;;;;6.12;100.00;100314.09;342973;28;1299;-82
2023/03/01 00:55:08;;;;;;;346.25;111.60;;;;;;;6.11;100.00;100308.06;341060;28;1305;-81
2023/03/01 00:55:18;;;;;;;346.63;112.28;;;;;;;6.15;100.00;100314.06;341095;29;1242;-81
2023/03/01 00:55:29;;;;;;;346.10;113.10;;;;;;;6.11;100.00;100308.06;340496;28;1323;-80
2023/03/01 00:55:41;;;;;;;346.17;113.65;;;;;;;6.13;100.00;100306.28;343737;28;1384;-81
2023/03/01 00:55:51;;;;;;;346.00;112.80;;;;;;;6.12;100.00;100307.16;339589;29;1675;-82
2023/03/01 00:56:02;;;;;;;348.10;115.10;;;;;;;6.15;100.00;100312.34;339185;29;1183;-80